Terminal Aerodrome Forecast
Issued by NWS

Home | Current Version | Previous Version | Text Only | Print | Product List | Glossary On
Versions: 1 2 3 4 5 6 7 8 9 10 11 12 13 14 15 16 17 18 19 20 21 22 23 24 25 26 27 28 29 30 31 32
000
FTUS41 KBOX 271720
TAFFMH
TAF
KFMH 271720Z 2718/2818 03004KT P6SM BKN035
     FM272300 VRB03KT P6SM SCT050
     FM280700 00000KT P6SM BKN025
     FM281400 17004KT P6SM BKN040
     FM281700 17006KT P6SM SCT050=

USA.gov is the U.S. government's official web portal to all federal, state and local government web resources and services.